createdAt,value
2023-03-22T00:02:18.579Z,14.50
2023-03-22T00:04:46.921Z,14.50
2023-03-22T00:07:15.065Z,14.50
2023-03-22T00:09:43.308Z,14.50
2023-03-22T00:12:11.462Z,14.50
2023-03-22T00:14:41.376Z,14.50
2023-03-22T00:17:09.644Z,14.50
2023-03-22T00:19:37.913Z,14.50
2023-03-22T00:22:06.878Z,14.50
2023-03-22T00:24:35.059Z,14.50
2023-03-22T00:27:03.463Z,14.50
2023-03-22T00:29:31.687Z,14.50
2023-03-22T00:32:01.174Z,14.40
2023-03-22T00:34:32.411Z,14.50
2023-03-22T00:37:00.821Z,14.50
2023-03-22T00:39:29.013Z,14.50
2023-03-22T00:41:57.147Z,14.50
2023-03-22T00:44:25.468Z,14.40
2023-03-22T00:46:53.612Z,14.40
2023-03-22T00:49:23.532Z,14.40
2023-03-22T00:51:51.879Z,14.40
2023-03-22T00:54:20.244Z,14.40
2023-03-22T00:56:49.928Z,14.40
2023-03-22T00:59:18.169Z,14.40
2023-03-22T01:01:46.349Z,14.30
2023-03-22T01:04:18.036Z,14.20
2023-03-22T01:06:47.703Z,14.20
2023-03-22T01:09:15.820Z,14.20
2023-03-22T01:11:44.195Z,14.10
2023-03-22T01:14:13.751Z,14.10
2023-03-22T01:16:41.992Z,14.10
2023-03-22T01:19:10.312Z,14.10
2023-03-22T01:21:38.433Z,14.10
2023-03-22T01:24:08.722Z,14.10
2023-03-22T01:26:37.740Z,14.10
2023-03-22T01:29:06.025Z,14.10
2023-03-22T01:31:34.194Z,14.20
2023-03-22T01:34:02.279Z,14.10
2023-03-22T01:36:30.595Z,14.10
2023-03-22T01:38:59.401Z,14.10
2023-03-22T01:41:29.114Z,14.10
2023-03-22T01:44:14.873Z,14.10
2023-03-22T01:46:44.329Z,14.10
2023-03-22T01:49:16.195Z,14.00
2023-03-22T01:51:45.869Z,14.10
2023-03-22T01:54:18.170Z,14.00
2023-03-22T01:56:48.206Z,14.00
2023-03-22T01:59:16.727Z,14.00
2023-03-22T02:01:47.076Z,13.90
2023-03-22T02:04:20.074Z,13.90
2023-03-22T02:06:49.347Z,13.90
2023-03-22T02:09:22.086Z,13.80
2023-03-22T02:12:03.211Z,13.80
2023-03-22T02:14:59.063Z,13.80
2023-03-22T02:17:35.404Z,13.70
2023-03-22T02:20:55.663Z,13.70
2023-03-22T02:23:59.619Z,13.70
2023-03-22T02:26:59.298Z,13.60
2023-03-22T02:29:37.955Z,13.50
2023-03-22T02:32:31.834Z,13.40
2023-03-22T02:35:33.522Z,13.40
2023-03-22T02:38:36.833Z,13.40
2023-03-22T02:41:13.277Z,13.30
2023-03-22T02:43:52.810Z,13.30
2023-03-22T02:46:26.085Z,13.40
2023-03-22T02:49:01.589Z,13.40
2023-03-22T02:51:37.753Z,13.30
2023-03-22T02:54:11.431Z,13.30
2023-03-22T02:56:45.801Z,13.30
2023-03-22T02:59:15.329Z,13.40
2023-03-22T03:01:47.201Z,13.40
2023-03-22T03:04:19.031Z,13.40
2023-03-22T03:06:50.107Z,13.40
2023-03-22T03:09:20.271Z,13.40
2023-03-22T03:11:51.648Z,13.40
2023-03-22T03:14:28.024Z,13.30
2023-03-22T03:17:09.548Z,13.30
2023-03-22T03:19:46.398Z,13.20
2023-03-22T03:22:35.964Z,13.20
2023-03-22T03:25:10.514Z,13.20
2023-03-22T03:27:44.378Z,13.20
2023-03-22T03:30:17.421Z,13.20
2023-03-22T03:32:49.067Z,13.20
2023-03-22T03:35:23.414Z,13.20
2023-03-22T03:37:54.785Z,13.20
2023-03-22T03:40:28.637Z,13.20
2023-03-22T03:43:02.952Z,13.20
2023-03-22T03:45:31.546Z,13.20
2023-03-22T03:48:02.316Z,13.20
2023-03-22T03:50:30.953Z,13.20
2023-03-22T03:52:59.709Z,13.20
2023-03-22T03:55:29.924Z,13.20
2023-03-22T03:57:59.486Z,13.20
2023-03-22T04:00:27.704Z,13.10
2023-03-22T04:02:55.926Z,13.10
2023-03-22T04:05:23.982Z,13.10
2023-03-22T04:07:52.211Z,13.10
2023-03-22T04:10:20.418Z,12.90
2023-03-22T04:12:48.583Z,12.90
2023-03-22T04:15:18.364Z,12.90
2023-03-22T04:17:47.029Z,12.80
2023-03-22T04:20:15.885Z,12.80
2023-03-22T04:22:44.995Z,12.80
2023-03-22T04:25:15.010Z,12.80
2023-03-22T04:27:44.102Z,12.70
2023-03-22T04:30:18.897Z,12.80
2023-03-22T04:32:49.672Z,12.80
2023-03-22T04:35:18.069Z,12.80
2023-03-22T04:37:46.254Z,12.80
2023-03-22T04:40:17.419Z,12.80
2023-03-22T04:42:46.096Z,12.70
2023-03-22T04:45:15.311Z,12.80
2023-03-22T04:47:43.582Z,12.80
2023-03-22T04:50:13.372Z,12.70
2023-03-22T04:52:41.614Z,12.70
2023-03-22T04:55:10.421Z,12.70
2023-03-22T04:57:38.646Z,12.80
2023-03-22T05:00:09.972Z,12.70
2023-03-22T05:02:41.460Z,12.70
2023-03-22T05:05:10.119Z,12.70
2023-03-22T05:07:40.341Z,12.60
2023-03-22T05:10:09.555Z,12.70
2023-03-22T05:12:37.821Z,12.70
2023-03-22T05:15:06.886Z,12.60
2023-03-22T05:17:35.008Z,12.60
2023-03-22T05:20:10.097Z,12.70
2023-03-22T05:22:40.967Z,12.60
2023-03-22T05:25:11.299Z,12.70
2023-03-22T05:27:39.542Z,12.70
2023-03-22T05:30:10.002Z,12.60
2023-03-22T05:32:43.074Z,12.70
2023-03-22T05:35:11.639Z,12.70
2023-03-22T05:37:41.515Z,12.70
2023-03-22T05:40:11.086Z,12.80
2023-03-22T05:42:39.251Z,12.70
2023-03-22T05:45:08.711Z,12.80
2023-03-22T05:47:39.341Z,12.80
2023-03-22T05:50:09.181Z,12.80
2023-03-22T05:52:37.381Z,12.80
2023-03-22T05:55:08.024Z,12.90
2023-03-22T05:57:36.392Z,12.90
2023-03-22T06:00:09.789Z,12.90
2023-03-22T06:02:38.045Z,13.00
2023-03-22T06:05:06.840Z,13.00
2023-03-22T06:07:35.058Z,13.00
2023-03-22T06:10:04.135Z,13.00
2023-03-22T06:12:34.081Z,13.10
2023-03-22T06:15:02.543Z,13.10
2023-03-22T06:17:30.796Z,13.10
2023-03-22T06:19:58.987Z,13.20
2023-03-22T06:22:27.269Z,13.20
2023-03-22T06:24:55.399Z,13.20
2023-03-22T06:27:23.603Z,13.20
2023-03-22T06:29:55.045Z,13.20
2023-03-22T06:32:23.695Z,13.20
2023-03-22T06:34:51.952Z,13.30
2023-03-22T06:37:20.332Z,13.30
2023-03-22T06:39:48.586Z,13.30
2023-03-22T06:42:16.796Z,13.30
2023-03-22T06:44:45.150Z,13.30
2023-03-22T06:47:14.853Z,13.30
2023-03-22T06:49:43.062Z,13.30
2023-03-22T06:52:11.354Z,13.30
2023-03-22T06:54:39.678Z,13.30
2023-03-22T06:57:07.918Z,13.30
2023-03-22T06:59:36.300Z,13.30
2023-03-22T07:02:04.988Z,13.30
2023-03-22T07:04:34.576Z,13.30
2023-03-22T07:07:03.365Z,13.40
2023-03-22T07:09:31.537Z,13.40
2023-03-22T07:11:59.828Z,13.40
2023-03-22T07:14:27.953Z,13.30
2023-03-22T07:16:56.892Z,13.30
2023-03-22T07:19:25.001Z,13.40
2023-03-22T07:21:54.716Z,13.40
2023-03-22T07:24:22.838Z,13.50
2023-03-22T07:26:52.405Z,13.50
2023-03-22T07:29:20.609Z,13.60
2023-03-22T07:31:48.798Z,13.60
2023-03-22T07:34:17.638Z,13.60
2023-03-22T07:36:45.766Z,13.60
2023-03-22T07:39:15.349Z,13.70
2023-03-22T07:41:43.568Z,13.70
2023-03-22T07:44:18.024Z,13.80
2023-03-22T07:46:46.674Z,13.80
2023-03-22T07:49:15.568Z,13.90
2023-03-22T07:51:43.744Z,13.90
2023-03-22T07:54:17.724Z,14.00
2023-03-22T07:56:52.461Z,14.10
2023-03-22T07:59:20.939Z,14.10
2023-03-22T08:01:49.138Z,14.10
2023-03-22T08:04:17.253Z,14.20
2023-03-22T08:06:46.526Z,14.20
2023-03-22T08:09:14.878Z,14.20
2023-03-22T08:11:43.097Z,14.30
2023-03-22T08:14:12.634Z,14.30
2023-03-22T08:16:41.651Z,14.40
2023-03-22T08:19:09.918Z,14.40
2023-03-22T08:21:38.817Z,14.40
2023-03-22T08:24:07.442Z,14.40
2023-03-22T08:26:36.282Z,14.40
2023-03-22T08:29:04.587Z,14.50
2023-03-22T08:31:34.236Z,14.50
2023-03-22T08:34:02.660Z,14.60
2023-03-22T08:36:31.121Z,14.60
2023-03-22T08:38:59.337Z,14.60
2023-03-22T08:41:27.593Z,14.60
2023-03-22T08:43:56.498Z,14.60
2023-03-22T08:46:24.762Z,14.60
2023-03-22T08:48:54.581Z,14.60
2023-03-22T08:51:24.183Z,14.60
2023-03-22T08:53:52.751Z,14.60
2023-03-22T08:56:22.700Z,14.70
2023-03-22T08:58:51.006Z,14.70
2023-03-22T09:01:21.066Z,14.70
2023-03-22T09:03:49.391Z,14.70
2023-03-22T09:06:18.955Z,14.70
2023-03-22T09:08:47.242Z,14.80
2023-03-22T09:11:17.693Z,14.80
2023-03-22T09:13:46.221Z,14.80
2023-03-22T09:16:14.804Z,14.80
2023-03-22T09:18:43.243Z,14.80
2023-03-22T09:21:12.334Z,14.80
2023-03-22T09:23:42.472Z,14.80
2023-03-22T09:26:11.130Z,14.90
2023-03-22T09:28:39.332Z,14.90
2023-03-22T09:31:10.211Z,14.90
2023-03-22T09:33:41.397Z,14.90
2023-03-22T09:36:11.955Z,14.90
2023-03-22T09:38:42.215Z,15.00
2023-03-22T09:41:16.305Z,15.00
2023-03-22T09:43:47.852Z,15.00
2023-03-22T09:46:18.199Z,15.10
2023-03-22T09:48:49.485Z,15.10
2023-03-22T09:51:34.459Z,15.10
2023-03-22T09:54:04.309Z,15.10
2023-03-22T09:56:33.956Z,15.10
2023-03-22T09:59:09.616Z,15.20
2023-03-22T10:01:46.096Z,15.20
2023-03-22T10:04:31.236Z,15.30
2023-03-22T10:07:08.215Z,15.30
2023-03-22T10:09:46.672Z,15.30
2023-03-22T10:12:21.848Z,15.40
2023-03-22T10:14:52.765Z,15.40
2023-03-22T10:17:26.500Z,15.40
2023-03-22T10:19:59.114Z,15.40
2023-03-22T10:22:31.957Z,15.50
2023-03-22T10:25:02.494Z,15.50
2023-03-22T10:27:32.671Z,15.50
2023-03-22T10:30:05.230Z,15.50
2023-03-22T10:32:54.760Z,15.60
2023-03-22T10:35:25.372Z,15.60
2023-03-22T10:37:56.073Z,15.60
2023-03-22T10:40:29.758Z,15.70
2023-03-22T10:43:00.860Z,15.70
2023-03-22T10:45:30.317Z,15.80
2023-03-22T10:48:02.903Z,15.80
2023-03-22T10:50:34.251Z,15.80
2023-03-22T10:53:06.490Z,15.90
2023-03-22T10:55:41.208Z,15.90
2023-03-22T10:58:15.051Z,15.90
2023-03-22T11:00:47.516Z,15.90
2023-03-22T11:03:30.227Z,16.00
2023-03-22T11:06:03.434Z,16.00
2023-03-22T11:08:40.410Z,16.00
2023-03-22T11:11:17.984Z,16.10
2023-03-22T11:13:52.824Z,16.10
2023-03-22T11:16:21.579Z,16.10
2023-03-22T11:18:50.041Z,16.20
2023-03-22T11:21:21.121Z,16.20
2023-03-22T11:23:56.591Z,16.20
2023-03-22T11:26:34.644Z,16.20
2023-03-22T11:29:13.023Z,16.30
2023-03-22T11:31:59.090Z,16.30
2023-03-22T11:34:29.871Z,16.30
2023-03-22T11:37:01.759Z,16.30
2023-03-22T11:39:31.126Z,16.40
2023-03-22T11:42:04.020Z,16.50
2023-03-22T11:44:38.068Z,16.50
2023-03-22T11:47:09.682Z,16.60
2023-03-22T11:49:43.891Z,16.60
2023-03-22T11:52:16.696Z,16.60
2023-03-22T11:54:47.005Z,16.60
2023-03-22T11:57:19.478Z,16.60
2023-03-22T11:59:50.578Z,16.70
2023-03-22T12:02:26.723Z,16.70
2023-03-22T12:05:01.757Z,16.70
2023-03-22T12:07:32.013Z,16.80
2023-03-22T12:10:04.546Z,16.80
2023-03-22T12:12:38.495Z,16.80
2023-03-22T12:15:09.484Z,16.80
2023-03-22T12:17:41.953Z,16.90
2023-03-22T12:20:21.109Z,16.90
2023-03-22T12:22:53.428Z,17.00
2023-03-22T12:25:24.715Z,17.00
2023-03-22T12:27:57.474Z,17.00
2023-03-22T12:30:28.180Z,17.00
2023-03-22T12:33:02.897Z,17.00
2023-03-22T12:35:32.964Z,17.00
2023-03-22T12:38:06.859Z,17.10
2023-03-22T12:40:39.727Z,17.10
2023-03-22T12:43:16.489Z,17.20
2023-03-22T12:45:49.285Z,17.20
2023-03-22T12:48:21.386Z,17.20
2023-03-22T12:50:54.084Z,17.30
2023-03-22T12:53:27.661Z,17.30
2023-03-22T12:55:58.422Z,17.30
2023-03-22T12:58:28.894Z,17.30
2023-03-22T13:01:00.420Z,17.30
2023-03-22T13:03:31.197Z,17.40
2023-03-22T13:06:06.066Z,17.40
2023-03-22T13:09:04.943Z,17.40
2023-03-22T13:11:33.130Z,17.40
2023-03-22T13:14:02.915Z,17.50
2023-03-22T13:16:50.590Z,17.50
2023-03-22T13:19:29.557Z,17.60
2023-03-22T13:22:19.093Z,17.60
2023-03-22T13:25:01.836Z,17.60
2023-03-22T13:27:43.694Z,17.60
2023-03-22T13:30:24.551Z,17.60
2023-03-22T13:32:56.554Z,17.70
2023-03-22T13:35:28.777Z,17.70
2023-03-22T13:38:03.281Z,17.70
2023-03-22T13:40:37.703Z,17.70
2023-03-22T13:43:30.855Z,17.70
2023-03-22T13:46:06.853Z,17.80
2023-03-22T13:48:44.807Z,17.80
2023-03-22T13:51:17.739Z,17.80
2023-03-22T13:53:57.798Z,17.80
2023-03-22T13:56:34.568Z,17.80
2023-03-22T13:59:05.188Z,17.90
2023-03-22T14:01:38.077Z,17.90
2023-03-22T14:04:12.343Z,18.00
2023-03-22T14:06:50.113Z,18.00
2023-03-22T14:09:26.710Z,18.00
2023-03-22T14:12:01.550Z,18.00
2023-03-22T14:14:33.979Z,18.00
2023-03-22T14:17:09.415Z,18.00
2023-03-22T14:19:37.813Z,18.00
